sensor_id;sensor_type;location;lat;lon;timestamp;P1;durP1;ratioP1;P2;durP2;ratioP2
19863;SDS011;10094;48.820;9.226;2022-07-05T00:06:28;3.72;;;2.63;;
19863;SDS011;10094;48.820;9.226;2022-07-05T00:13:11;4.10;;;2.80;;
19863;SDS011;10094;48.820;9.226;2022-07-05T00:19:53;3.03;;;2.65;;
19863;SDS011;10094;48.820;9.226;2022-07-05T00:26:36;5.43;;;2.88;;
19863;SDS011;10094;48.820;9.226;2022-07-05T00:33:19;3.78;;;2.83;;
19863;SDS011;10094;48.820;9.226;2022-07-05T00:40:02;4.13;;;2.92;;
19863;SDS011;10094;48.820;9.226;2022-07-05T00:46:46;5.30;;;3.00;;
19863;SDS011;10094;48.820;9.226;2022-07-05T00:53:28;3.67;;;3.10;;
19863;SDS011;10094;48.820;9.226;2022-07-05T01:00:11;5.53;;;3.45;;
19863;SDS011;10094;48.820;9.226;2022-07-05T01:06:54;3.42;;;2.88;;
19863;SDS011;10094;48.820;9.226;2022-07-05T01:13:37;4.10;;;3.20;;
19863;SDS011;10094;48.820;9.226;2022-07-05T01:20:20;4.03;;;3.70;;
19863;SDS011;10094;48.820;9.226;2022-07-05T01:27:02;4.60;;;3.60;;
19863;SDS011;10094;48.820;9.226;2022-07-05T01:33:45;5.75;;;3.60;;
19863;SDS011;10094;48.820;9.226;2022-07-05T01:40:28;4.72;;;3.40;;
19863;SDS011;10094;48.820;9.226;2022-07-05T01:47:11;4.15;;;3.33;;
19863;SDS011;10094;48.820;9.226;2022-07-05T01:53:55;4.88;;;3.45;;
19863;SDS011;10094;48.820;9.226;2022-07-05T02:00:51;4.35;;;3.60;;
19863;SDS011;10094;48.820;9.226;2022-07-05T02:07:34;7.13;;;3.90;;
19863;SDS011;10094;48.820;9.226;2022-07-05T02:14:17;4.47;;;3.92;;
19863;SDS011;10094;48.820;9.226;2022-07-05T02:21:00;4.20;;;3.80;;
19863;SDS011;10094;48.820;9.226;2022-07-05T02:27:43;5.35;;;3.85;;
19863;SDS011;10094;48.820;9.226;2022-07-05T02:34:27;6.18;;;3.83;;
19863;SDS011;10094;48.820;9.226;2022-07-05T02:41:10;5.95;;;3.45;;
19863;SDS011;10094;48.820;9.226;2022-07-05T02:47:57;5.50;;;3.95;;
19863;SDS011;10094;48.820;9.226;2022-07-05T02:54:41;6.85;;;3.92;;
19863;SDS011;10094;48.820;9.226;2022-07-05T03:01:25;4.72;;;4.18;;
19863;SDS011;10094;48.820;9.226;2022-07-05T03:08:14;6.85;;;4.47;;
19863;SDS011;10094;48.820;9.226;2022-07-05T03:14:57;4.90;;;4.40;;
19863;SDS011;10094;48.820;9.226;2022-07-05T03:21:41;7.45;;;4.60;;
19863;SDS011;10094;48.820;9.226;2022-07-05T03:28:24;6.13;;;4.95;;
19863;SDS011;10094;48.820;9.226;2022-07-05T03:35:09;5.90;;;4.53;;
19863;SDS011;10094;48.820;9.226;2022-07-05T03:41:52;6.45;;;3.92;;
19863;SDS011;10094;48.820;9.226;2022-07-05T03:48:38;6.95;;;4.20;;
19863;SDS011;10094;48.820;9.226;2022-07-05T03:55:24;5.63;;;4.05;;
19863;SDS011;10094;48.820;9.226;2022-07-05T04:02:07;8.20;;;4.15;;
19863;SDS011;10094;48.820;9.226;2022-07-05T04:08:49;5.53;;;4.50;;
19863;SDS011;10094;48.820;9.226;2022-07-05T04:15:33;6.88;;;4.28;;
19863;SDS011;10094;48.820;9.226;2022-07-05T04:22:18;12.45;;;4.32;;
19863;SDS011;10094;48.820;9.226;2022-07-05T04:29:00;7.40;;;4.63;;
19863;SDS011;10094;48.820;9.226;2022-07-05T04:35:48;7.65;;;5.00;;
19863;SDS011;10094;48.820;9.226;2022-07-05T04:42:31;6.82;;;5.05;;
19863;SDS011;10094;48.820;9.226;2022-07-05T04:49:14;9.13;;;5.20;;
19863;SDS011;10094;48.820;9.226;2022-07-05T04:55:57;6.10;;;3.88;;
19863;SDS011;10094;48.820;9.226;2022-07-05T05:02:40;6.72;;;4.03;;
19863;SDS011;10094;48.820;9.226;2022-07-05T05:09:22;7.53;;;3.22;;
19863;SDS011;10094;48.820;9.226;2022-07-05T05:16:04;5.05;;;3.50;;
19863;SDS011;10094;48.820;9.226;2022-07-05T05:22:47;6.38;;;3.60;;
19863;SDS011;10094;48.820;9.226;2022-07-05T05:29:30;7.85;;;4.57;;
19863;SDS011;10094;48.820;9.226;2022-07-05T05:36:13;5.35;;;3.33;;
19863;SDS011;10094;48.820;9.226;2022-07-05T05:42:59;6.60;;;2.90;;
19863;SDS011;10094;48.820;9.226;2022-07-05T05:49:42;5.75;;;2.50;;
19863;SDS011;10094;48.820;9.226;2022-07-05T05:56:25;3.42;;;2.15;;
19863;SDS011;10094;48.820;9.226;2022-07-05T06:03:09;3.05;;;2.28;;
19863;SDS011;10094;48.820;9.226;2022-07-05T06:09:51;3.42;;;2.30;;
19863;SDS011;10094;48.820;9.226;2022-07-05T06:16:34;4.18;;;1.98;;
19863;SDS011;10094;48.820;9.226;2022-07-05T06:23:16;7.22;;;2.28;;
19863;SDS011;10094;48.820;9.226;2022-07-05T06:29:59;1.70;;;1.52;;
19863;SDS011;10094;48.820;9.226;2022-07-05T06:36:43;3.15;;;1.83;;
19863;SDS011;10094;48.820;9.226;2022-07-05T06:43:27;4.55;;;1.95;;
19863;SDS011;10094;48.820;9.226;2022-07-05T06:50:15;2.38;;;1.60;;
19863;SDS011;10094;48.820;9.226;2022-07-05T06:56:57;3.15;;;1.50;;
19863;SDS011;10094;48.820;9.226;2022-07-05T07:03:59;2.05;;;1.60;;
19863;SDS011;10094;48.820;9.226;2022-07-05T07:11:02;2.20;;;1.60;;
19863;SDS011;10094;48.820;9.226;2022-07-05T07:17:44;4.07;;;1.60;;
19863;SDS011;10094;48.820;9.226;2022-07-05T07:24:27;3.60;;;1.67;;
19863;SDS011;10094;48.820;9.226;2022-07-05T07:31:09;4.38;;;1.67;;
19863;SDS011;10094;48.820;9.226;2022-07-05T07:37:53;3.65;;;1.52;;
19863;SDS011;10094;48.820;9.226;2022-07-05T07:44:35;5.00;;;1.52;;
19863;SDS011;10094;48.820;9.226;2022-07-05T07:51:17;9.57;;;1.73;;
19863;SDS011;10094;48.820;9.226;2022-07-05T07:58:03;4.35;;;1.40;;
19863;SDS011;10094;48.820;9.226;2022-07-05T08:04:51;4.60;;;1.52;;
19863;SDS011;10094;48.820;9.226;2022-07-05T08:11:35;1.77;;;1.48;;
19863;SDS011;10094;48.820;9.226;2022-07-05T08:18:17;4.03;;;1.50;;
19863;SDS011;10094;48.820;9.226;2022-07-05T08:25:18;2.25;;;1.50;;
19863;SDS011;10094;48.820;9.226;2022-07-05T08:32:01;2.65;;;1.38;;
19863;SDS011;10094;48.820;9.226;2022-07-05T08:38:43;3.30;;;1.63;;
19863;SDS011;10094;48.820;9.226;2022-07-05T08:45:26;2.30;;;1.20;;
19863;SDS011;10094;48.820;9.226;2022-07-05T08:52:10;2.42;;;1.30;;
19863;SDS011;10094;48.820;9.226;2022-07-05T08:58:54;1.52;;;1.20;;
19863;SDS011;10094;48.820;9.226;2022-07-05T09:05:41;1.67;;;1.33;;
19863;SDS011;10094;48.820;9.226;2022-07-05T09:12:25;3.63;;;1.50;;
19863;SDS011;10094;48.820;9.226;2022-07-05T09:19:08;1.92;;;1.30;;
19863;SDS011;10094;48.820;9.226;2022-07-05T09:25:55;2.97;;;1.40;;
19863;SDS011;10094;48.820;9.226;2022-07-05T09:32:47;2.60;;;1.50;;
19863;SDS011;10094;48.820;9.226;2022-07-05T09:46:12;4.55;;;1.60;;
19863;SDS011;10094;48.820;9.226;2022-07-05T09:52:55;2.42;;;1.38;;
19863;SDS011;10094;48.820;9.226;2022-07-05T09:59:38;3.25;;;1.30;;
19863;SDS011;10094;48.820;9.226;2022-07-05T10:06:24;1.83;;;1.30;;
19863;SDS011;10094;48.820;9.226;2022-07-05T10:13:08;2.78;;;1.33;;
19863;SDS011;10094;48.820;9.226;2022-07-05T10:19:51;3.08;;;1.25;;
19863;SDS011;10094;48.820;9.226;2022-07-05T10:26:36;1.30;;;1.10;;
19863;SDS011;10094;48.820;9.226;2022-07-05T10:33:19;4.00;;;1.20;;
19863;SDS011;10094;48.820;9.226;2022-07-05T10:40:09;4.60;;;1.30;;
19863;SDS011;10094;48.820;9.226;2022-07-05T10:46:52;4.25;;;1.20;;
19863;SDS011;10094;48.820;9.226;2022-07-05T11:00:37;1.20;;;1.02;;
19863;SDS011;10094;48.820;9.226;2022-07-05T11:07:54;1.83;;;1.00;;
19863;SDS011;10094;48.820;9.226;2022-07-05T11:14:44;4.15;;;1.60;;
19863;SDS011;10094;48.820;9.226;2022-07-05T11:21:28;1.60;;;1.20;;
19863;SDS011;10094;48.820;9.226;2022-07-05T11:28:20;2.25;;;1.20;;
19863;SDS011;10094;48.820;9.226;2022-07-05T11:35:14;2.20;;;1.15;;
19863;SDS011;10094;48.820;9.226;2022-07-05T11:41:58;1.35;;;1.15;;
19863;SDS011;10094;48.820;9.226;2022-07-05T11:48:40;3.67;;;1.30;;
19863;SDS011;10094;48.820;9.226;2022-07-05T11:55:30;1.70;;;1.10;;
19863;SDS011;10094;48.820;9.226;2022-07-05T12:02:13;2.38;;;1.40;;
19863;SDS011;10094;48.820;9.226;2022-07-05T12:09:05;3.10;;;1.38;;
19863;SDS011;10094;48.820;9.226;2022-07-05T12:15:48;1.90;;;1.35;;
19863;SDS011;10094;48.820;9.226;2022-07-05T12:22:31;2.88;;;1.33;;
19863;SDS011;10094;48.820;9.226;2022-07-05T12:29:15;2.30;;;1.27;;
19863;SDS011;10094;48.820;9.226;2022-07-05T12:36:05;3.80;;;1.42;;
19863;SDS011;10094;48.820;9.226;2022-07-05T12:43:03;4.72;;;1.58;;
19863;SDS011;10094;48.820;9.226;2022-07-05T12:49:57;3.38;;;1.45;;
19863;SDS011;10094;48.820;9.226;2022-07-05T12:56:39;2.53;;;1.50;;
19863;SDS011;10094;48.820;9.226;2022-07-05T13:10:54;4.63;;;1.65;;
19863;SDS011;10094;48.820;9.226;2022-07-05T13:17:36;2.13;;;1.45;;
19863;SDS011;10094;48.820;9.226;2022-07-05T13:24:19;1.90;;;1.27;;
19863;SDS011;10094;48.820;9.226;2022-07-05T13:31:02;5.35;;;1.52;;
19863;SDS011;10094;48.820;9.226;2022-07-05T13:37:44;4.93;;;1.63;;
19863;SDS011;10094;48.820;9.226;2022-07-05T13:44:28;1.77;;;1.50;;
19863;SDS011;10094;48.820;9.226;2022-07-05T13:51:10;7.53;;;2.03;;
19863;SDS011;10094;48.820;9.226;2022-07-05T13:57:53;2.70;;;1.40;;
19863;SDS011;10094;48.820;9.226;2022-07-05T14:04:35;1.40;;;1.30;;
19863;SDS011;10094;48.820;9.226;2022-07-05T14:11:18;1.33;;;1.17;;
19863;SDS011;10094;48.820;9.226;2022-07-05T14:18:01;5.45;;;1.60;;
19863;SDS011;10094;48.820;9.226;2022-07-05T14:24:44;4.20;;;1.50;;
19863;SDS011;10094;48.820;9.226;2022-07-05T14:31:26;3.53;;;1.40;;
19863;SDS011;10094;48.820;9.226;2022-07-05T14:38:13;2.70;;;1.45;;
19863;SDS011;10094;48.820;9.226;2022-07-05T14:44:57;4.47;;;1.67;;
19863;SDS011;10094;48.820;9.226;2022-07-05T14:51:39;4.47;;;1.50;;
19863;SDS011;10094;48.820;9.226;2022-07-05T14:58:21;3.63;;;1.50;;
19863;SDS011;10094;48.820;9.226;2022-07-05T15:05:04;1.85;;;1.40;;
19863;SDS011;10094;48.820;9.226;2022-07-05T15:11:49;1.38;;;1.20;;
19863;SDS011;10094;48.820;9.226;2022-07-05T15:18:33;1.60;;;1.40;;
19863;SDS011;10094;48.820;9.226;2022-07-05T15:25:16;2.05;;;1.52;;
19863;SDS011;10094;48.820;9.226;2022-07-05T15:31:59;1.30;;;1.20;;
19863;SDS011;10094;48.820;9.226;2022-07-05T15:38:41;2.45;;;1.23;;
19863;SDS011;10094;48.820;9.226;2022-07-05T15:45:24;2.25;;;1.23;;
19863;SDS011;10094;48.820;9.226;2022-07-05T15:52:06;2.53;;;1.33;;
19863;SDS011;10094;48.820;9.226;2022-07-05T15:58:49;3.08;;;1.15;;
19863;SDS011;10094;48.820;9.226;2022-07-05T16:05:32;3.50;;;1.48;;
19863;SDS011;10094;48.820;9.226;2022-07-05T16:12:14;2.38;;;1.60;;
19863;SDS011;10094;48.820;9.226;2022-07-05T16:18:57;3.55;;;1.63;;
19863;SDS011;10094;48.820;9.226;2022-07-05T16:25:40;2.92;;;1.67;;
19863;SDS011;10094;48.820;9.226;2022-07-05T16:32:22;1.83;;;1.27;;
19863;SDS011;10094;48.820;9.226;2022-07-05T16:39:05;2.78;;;1.45;;
19863;SDS011;10094;48.820;9.226;2022-07-05T16:45:53;1.95;;;1.27;;
19863;SDS011;10094;48.820;9.226;2022-07-05T16:52:35;3.22;;;1.25;;
19863;SDS011;10094;48.820;9.226;2022-07-05T16:59:20;2.85;;;1.40;;
19863;SDS011;10094;48.820;9.226;2022-07-05T17:06:03;3.25;;;1.30;;
19863;SDS011;10094;48.820;9.226;2022-07-05T17:12:46;3.42;;;1.50;;
19863;SDS011;10094;48.820;9.226;2022-07-05T17:19:31;4.82;;;1.30;;
19863;SDS011;10094;48.820;9.226;2022-07-05T17:26:16;2.15;;;1.40;;
19863;SDS011;10094;48.820;9.226;2022-07-05T17:33:03;1.20;;;1.10;;
19863;SDS011;10094;48.820;9.226;2022-07-05T17:39:46;1.65;;;1.33;;
19863;SDS011;10094;48.820;9.226;2022-07-05T17:46:28;4.35;;;1.50;;
19863;SDS011;10094;48.820;9.226;2022-07-05T17:53:11;1.73;;;1.63;;
19863;SDS011;10094;48.820;9.226;2022-07-05T17:59:54;1.75;;;1.45;;
19863;SDS011;10094;48.820;9.226;2022-07-05T18:06:36;2.22;;;1.58;;
19863;SDS011;10094;48.820;9.226;2022-07-05T18:13:18;3.47;;;1.63;;
19863;SDS011;10094;48.820;9.226;2022-07-05T18:20:02;2.03;;;1.35;;
19863;SDS011;10094;48.820;9.226;2022-07-05T18:26:44;1.70;;;1.30;;
19863;SDS011;10094;48.820;9.226;2022-07-05T18:33:47;2.13;;;1.67;;
19863;SDS011;10094;48.820;9.226;2022-07-05T18:40:31;3.50;;;1.80;;
19863;SDS011;10094;48.820;9.226;2022-07-05T18:47:13;4.97;;;1.77;;
19863;SDS011;10094;48.820;9.226;2022-07-05T18:53:56;3.35;;;1.60;;
19863;SDS011;10094;48.820;9.226;2022-07-05T19:00:38;4.38;;;2.05;;
19863;SDS011;10094;48.820;9.226;2022-07-05T19:07:21;3.58;;;1.55;;
19863;SDS011;10094;48.820;9.226;2022-07-05T19:14:21;4.20;;;2.10;;
19863;SDS011;10094;48.820;9.226;2022-07-05T19:21:04;6.68;;;2.30;;
19863;SDS011;10094;48.820;9.226;2022-07-05T19:27:54;3.05;;;2.00;;
19863;SDS011;10094;48.820;9.226;2022-07-05T19:34:45;5.68;;;2.08;;
19863;SDS011;10094;48.820;9.226;2022-07-05T19:41:28;2.40;;;1.85;;
19863;SDS011;10094;48.820;9.226;2022-07-05T19:48:10;2.75;;;1.63;;
19863;SDS011;10094;48.820;9.226;2022-07-05T19:54:53;4.60;;;2.20;;
19863;SDS011;10094;48.820;9.226;2022-07-05T20:01:35;2.65;;;1.70;;
19863;SDS011;10094;48.820;9.226;2022-07-05T20:08:18;2.70;;;1.80;;
19863;SDS011;10094;48.820;9.226;2022-07-05T20:15:01;3.25;;;1.83;;
19863;SDS011;10094;48.820;9.226;2022-07-05T20:21:44;3.03;;;1.95;;
19863;SDS011;10094;48.820;9.226;2022-07-05T20:28:26;4.65;;;2.05;;
19863;SDS011;10094;48.820;9.226;2022-07-05T20:35:08;2.72;;;1.83;;
19863;SDS011;10094;48.820;9.226;2022-07-05T20:41:51;6.25;;;2.22;;
19863;SDS011;10094;48.820;9.226;2022-07-05T20:48:34;3.50;;;2.42;;
19863;SDS011;10094;48.820;9.226;2022-07-05T20:55:16;3.33;;;2.00;;
19863;SDS011;10094;48.820;9.226;2022-07-05T21:01:59;6.03;;;2.58;;
19863;SDS011;10094;48.820;9.226;2022-07-05T21:08:42;6.22;;;3.05;;
19863;SDS011;10094;48.820;9.226;2022-07-05T21:15:24;7.32;;;2.25;;
19863;SDS011;10094;48.820;9.226;2022-07-05T21:22:07;7.88;;;2.67;;
19863;SDS011;10094;48.820;9.226;2022-07-05T21:28:50;4.68;;;2.20;;
19863;SDS011;10094;48.820;9.226;2022-07-05T21:35:31;2.60;;;1.98;;
19863;SDS011;10094;48.820;9.226;2022-07-05T21:42:14;3.70;;;2.47;;
19863;SDS011;10094;48.820;9.226;2022-07-05T21:48:59;5.07;;;2.50;;
19863;SDS011;10094;48.820;9.226;2022-07-05T21:55:44;2.85;;;2.15;;
19863;SDS011;10094;48.820;9.226;2022-07-05T22:02:26;2.70;;;2.03;;
19863;SDS011;10094;48.820;9.226;2022-07-05T22:09:28;2.50;;;1.98;;
19863;SDS011;10094;48.820;9.226;2022-07-05T22:16:11;3.60;;;1.75;;
19863;SDS011;10094;48.820;9.226;2022-07-05T22:22:54;2.45;;;2.13;;
19863;SDS011;10094;48.820;9.226;2022-07-05T22:29:36;3.00;;;2.00;;
19863;SDS011;10094;48.820;9.226;2022-07-05T22:36:19;3.10;;;1.73;;
19863;SDS011;10094;48.820;9.226;2022-07-05T22:43:02;2.70;;;2.03;;
19863;SDS011;10094;48.820;9.226;2022-07-05T22:49:44;2.30;;;1.50;;
19863;SDS011;10094;48.820;9.226;2022-07-05T22:56:26;4.25;;;2.00;;
19863;SDS011;10094;48.820;9.226;2022-07-05T23:03:09;2.40;;;1.88;;
19863;SDS011;10094;48.820;9.226;2022-07-05T23:09:59;4.05;;;2.00;;
19863;SDS011;10094;48.820;9.226;2022-07-05T23:16:41;4.70;;;2.13;;
19863;SDS011;10094;48.820;9.226;2022-07-05T23:23:23;2.70;;;1.95;;
19863;SDS011;10094;48.820;9.226;2022-07-05T23:30:06;3.20;;;2.17;;
19863;SDS011;10094;48.820;9.226;2022-07-05T23:36:49;3.08;;;1.95;;
19863;SDS011;10094;48.820;9.226;2022-07-05T23:43:31;3.30;;;2.03;;
19863;SDS011;10094;48.820;9.226;2022-07-05T23:50:14;5.20;;;2.17;;
19863;SDS011;10094;48.820;9.226;2022-07-05T23:56:56;2.80;;;2.40;;
